sensor_id;sensor_type;location;lat;lon;timestamp;P1;durP1;ratioP1;P2;durP2;ratioP2
13797;SDS011;6970;51.340;3.240;2023-05-10T00:00:51;22.13;;;14.23;;
13797;SDS011;6970;51.340;3.240;2023-05-10T00:03:18;23.33;;;15.50;;
13797;SDS011;6970;51.340;3.240;2023-05-10T00:05:47;23.63;;;14.80;;
13797;SDS011;6970;51.340;3.240;2023-05-10T00:08:14;28.97;;;15.97;;
13797;SDS011;6970;51.340;3.240;2023-05-10T00:10:44;22.20;;;14.97;;
13797;SDS011;6970;51.340;3.240;2023-05-10T00:13:17;23.30;;;14.90;;
13797;SDS011;6970;51.340;3.240;2023-05-10T00:15:46;23.40;;;15.00;;
13797;SDS011;6970;51.340;3.240;2023-05-10T00:20:46;25.67;;;15.43;;
13797;SDS011;6970;51.340;3.240;2023-05-10T00:23:18;29.67;;;14.67;;
13797;SDS011;6970;51.340;3.240;2023-05-10T00:25:46;19.43;;;12.77;;
13797;SDS011;6970;51.340;3.240;2023-05-10T00:28:16;18.50;;;13.47;;
13797;SDS011;6970;51.340;3.240;2023-05-10T00:33:16;19.97;;;11.73;;
13797;SDS011;6970;51.340;3.240;2023-05-10T00:35:46;21.07;;;12.27;;
13797;SDS011;6970;51.340;3.240;2023-05-10T00:38:13;20.50;;;11.33;;
13797;SDS011;6970;51.340;3.240;2023-05-10T00:40:40;15.07;;;9.90;;
13797;SDS011;6970;51.340;3.240;2023-05-10T00:43:07;13.87;;;9.30;;
13797;SDS011;6970;51.340;3.240;2023-05-10T00:48:06;17.87;;;10.37;;
13797;SDS011;6970;51.340;3.240;2023-05-10T00:50:33;19.07;;;9.90;;
13797;SDS011;6970;51.340;3.240;2023-05-10T00:53:04;17.60;;;10.00;;
13797;SDS011;6970;51.340;3.240;2023-05-10T00:55:32;17.93;;;10.40;;
13797;SDS011;6970;51.340;3.240;2023-05-10T00:57:59;18.00;;;10.00;;
13797;SDS011;6970;51.340;3.240;2023-05-10T01:00:28;15.27;;;11.13;;
13797;SDS011;6970;51.340;3.240;2023-05-10T01:02:58;17.67;;;9.90;;
13797;SDS011;6970;51.340;3.240;2023-05-10T01:05:28;17.10;;;10.63;;
13797;SDS011;6970;51.340;3.240;2023-05-10T01:10:25;18.00;;;9.90;;
13797;SDS011;6970;51.340;3.240;2023-05-10T01:12:52;18.73;;;8.60;;
13797;SDS011;6970;51.340;3.240;2023-05-10T01:15:20;17.50;;;9.67;;
13797;SDS011;6970;51.340;3.240;2023-05-10T01:17:49;18.80;;;8.50;;
13797;SDS011;6970;51.340;3.240;2023-05-10T01:20:16;15.80;;;8.93;;
13797;SDS011;6970;51.340;3.240;2023-05-10T01:31:30;22.53;;;7.37;;
13797;SDS011;6970;51.340;3.240;2023-05-10T01:34:07;12.83;;;7.67;;
13797;SDS011;6970;51.340;3.240;2023-05-10T01:42:15;18.23;;;11.57;;
13797;SDS011;6970;51.340;3.240;2023-05-10T01:45:00;23.87;;;11.57;;
13797;SDS011;6970;51.340;3.240;2023-05-10T01:47:38;19.43;;;10.83;;
13797;SDS011;6970;51.340;3.240;2023-05-10T01:50:14;15.87;;;10.90;;
13797;SDS011;6970;51.340;3.240;2023-05-10T01:52:46;17.53;;;11.00;;
13797;SDS011;6970;51.340;3.240;2023-05-10T01:55:18;16.20;;;11.30;;
13797;SDS011;6970;51.340;3.240;2023-05-10T01:57:48;18.33;;;10.50;;
13797;SDS011;6970;51.340;3.240;2023-05-10T02:00:21;18.57;;;11.40;;
13797;SDS011;6970;51.340;3.240;2023-05-10T02:05:20;16.27;;;10.77;;
13797;SDS011;6970;51.340;3.240;2023-05-10T02:10:21;14.30;;;9.53;;
13797;SDS011;6970;51.340;3.240;2023-05-10T02:12:49;18.63;;;10.40;;
13797;SDS011;6970;51.340;3.240;2023-05-10T02:17:54;14.93;;;10.30;;
13797;SDS011;6970;51.340;3.240;2023-05-10T02:20:26;19.03;;;10.57;;
13797;SDS011;6970;51.340;3.240;2023-05-10T02:22:55;14.10;;;10.53;;
13797;SDS011;6970;51.340;3.240;2023-05-10T02:25:24;16.20;;;10.50;;
13797;SDS011;6970;51.340;3.240;2023-05-10T02:27:53;12.87;;;8.67;;
13797;SDS011;6970;51.340;3.240;2023-05-10T02:30:26;13.13;;;8.40;;
13797;SDS011;6970;51.340;3.240;2023-05-10T02:32:55;12.33;;;7.80;;
13797;SDS011;6970;51.340;3.240;2023-05-10T02:35:31;11.37;;;8.00;;
13797;SDS011;6970;51.340;3.240;2023-05-10T02:38:02;12.27;;;8.87;;
13797;SDS011;6970;51.340;3.240;2023-05-10T02:43:03;13.90;;;9.40;;
13797;SDS011;6970;51.340;3.240;2023-05-10T02:48:07;15.93;;;11.57;;
13797;SDS011;6970;51.340;3.240;2023-05-10T02:50:36;10.30;;;9.17;;
13797;SDS011;6970;51.340;3.240;2023-05-10T02:53:11;9.67;;;8.67;;
13797;SDS011;6970;51.340;3.240;2023-05-10T02:55:49;10.43;;;8.00;;
13797;SDS011;6970;51.340;3.240;2023-05-10T02:58:18;11.40;;;7.13;;
13797;SDS011;6970;51.340;3.240;2023-05-10T03:00:49;10.93;;;8.00;;
13797;SDS011;6970;51.340;3.240;2023-05-10T03:03:17;9.13;;;8.23;;
13797;SDS011;6970;51.340;3.240;2023-05-10T03:05:44;11.87;;;9.90;;
13797;SDS011;6970;51.340;3.240;2023-05-10T03:08:11;12.57;;;10.57;;
13797;SDS011;6970;51.340;3.240;2023-05-10T03:10:41;12.77;;;9.27;;
13797;SDS011;6970;51.340;3.240;2023-05-10T03:13:35;9.30;;;8.27;;
13797;SDS011;6970;51.340;3.240;2023-05-10T03:16:15;10.07;;;9.07;;
13797;SDS011;6970;51.340;3.240;2023-05-10T03:24:14;10.77;;;8.87;;
13797;SDS011;6970;51.340;3.240;2023-05-10T03:26:49;8.47;;;7.63;;
13797;SDS011;6970;51.340;3.240;2023-05-10T03:29:24;9.30;;;7.67;;
13797;SDS011;6970;51.340;3.240;2023-05-10T03:34:27;8.73;;;7.50;;
13797;SDS011;6970;51.340;3.240;2023-05-10T03:37:00;8.47;;;7.57;;
13797;SDS011;6970;51.340;3.240;2023-05-10T03:41:57;12.23;;;9.97;;
13797;SDS011;6970;51.340;3.240;2023-05-10T03:44:26;10.23;;;9.20;;
13797;SDS011;6970;51.340;3.240;2023-05-10T03:46:56;10.10;;;8.87;;
13797;SDS011;6970;51.340;3.240;2023-05-10T03:49:23;10.07;;;9.23;;
13797;SDS011;6970;51.340;3.240;2023-05-10T03:51:51;12.77;;;9.97;;
13797;SDS011;6970;51.340;3.240;2023-05-10T03:54:21;10.80;;;9.90;;
13797;SDS011;6970;51.340;3.240;2023-05-10T03:56:49;11.23;;;10.17;;
13797;SDS011;6970;51.340;3.240;2023-05-10T04:01:48;8.77;;;7.97;;
13797;SDS011;6970;51.340;3.240;2023-05-10T04:04:16;10.83;;;8.77;;
13797;SDS011;6970;51.340;3.240;2023-05-10T04:06:48;10.93;;;8.37;;
13797;SDS011;6970;51.340;3.240;2023-05-10T04:09:17;9.40;;;8.13;;
13797;SDS011;6970;51.340;3.240;2023-05-10T04:11:44;8.90;;;8.03;;
13797;SDS011;6970;51.340;3.240;2023-05-10T04:14:12;10.20;;;8.53;;
13797;SDS011;6970;51.340;3.240;2023-05-10T04:16:39;8.87;;;7.90;;
13797;SDS011;6970;51.340;3.240;2023-05-10T04:19:09;12.37;;;8.83;;
13797;SDS011;6970;51.340;3.240;2023-05-10T04:21:36;8.87;;;7.87;;
13797;SDS011;6970;51.340;3.240;2023-05-10T04:24:03;9.73;;;8.27;;
13797;SDS011;6970;51.340;3.240;2023-05-10T04:26:33;10.70;;;8.00;;
13797;SDS011;6970;51.340;3.240;2023-05-10T04:29:01;8.87;;;7.57;;
13797;SDS011;6970;51.340;3.240;2023-05-10T04:31:28;9.30;;;8.00;;
13797;SDS011;6970;51.340;3.240;2023-05-10T04:33:56;7.50;;;6.80;;
13797;SDS011;6970;51.340;3.240;2023-05-10T04:36:24;11.23;;;8.43;;
13797;SDS011;6970;51.340;3.240;2023-05-10T04:38:53;9.10;;;7.80;;
13797;SDS011;6970;51.340;3.240;2023-05-10T04:43:52;11.53;;;7.80;;
13797;SDS011;6970;51.340;3.240;2023-05-10T04:46:20;9.50;;;7.10;;
13797;SDS011;6970;51.340;3.240;2023-05-10T04:48:48;9.07;;;7.50;;
13797;SDS011;6970;51.340;3.240;2023-05-10T04:51:17;9.20;;;7.53;;
13797;SDS011;6970;51.340;3.240;2023-05-10T04:56:32;8.53;;;7.23;;
13797;SDS011;6970;51.340;3.240;2023-05-10T04:59:03;9.10;;;6.40;;
13797;SDS011;6970;51.340;3.240;2023-05-10T05:04:01;7.50;;;5.70;;
13797;SDS011;6970;51.340;3.240;2023-05-10T05:06:29;7.20;;;5.20;;
13797;SDS011;6970;51.340;3.240;2023-05-10T05:08:56;6.27;;;5.20;;
13797;SDS011;6970;51.340;3.240;2023-05-10T05:11:24;5.80;;;4.77;;
13797;SDS011;6970;51.340;3.240;2023-05-10T05:13:52;6.30;;;5.23;;
13797;SDS011;6970;51.340;3.240;2023-05-10T05:16:19;6.50;;;4.30;;
13797;SDS011;6970;51.340;3.240;2023-05-10T05:18:46;4.80;;;3.50;;
13797;SDS011;6970;51.340;3.240;2023-05-10T05:21:17;4.47;;;3.80;;
13797;SDS011;6970;51.340;3.240;2023-05-10T05:23:47;5.37;;;4.10;;
13797;SDS011;6970;51.340;3.240;2023-05-10T05:26:14;6.03;;;3.87;;
13797;SDS011;6970;51.340;3.240;2023-05-10T05:28:45;5.93;;;3.83;;
13797;SDS011;6970;51.340;3.240;2023-05-10T05:33:45;5.67;;;4.03;;
13797;SDS011;6970;51.340;3.240;2023-05-10T05:36:15;5.37;;;4.37;;
13797;SDS011;6970;51.340;3.240;2023-05-10T05:38:42;5.17;;;3.73;;
13797;SDS011;6970;51.340;3.240;2023-05-10T05:41:09;7.03;;;4.07;;
13797;SDS011;6970;51.340;3.240;2023-05-10T05:43:39;4.63;;;4.03;;
13797;SDS011;6970;51.340;3.240;2023-05-10T05:46:09;5.90;;;3.97;;
13797;SDS011;6970;51.340;3.240;2023-05-10T05:48:36;4.87;;;4.30;;
13797;SDS011;6970;51.340;3.240;2023-05-10T05:51:03;5.87;;;4.07;;
13797;SDS011;6970;51.340;3.240;2023-05-10T05:53:33;4.63;;;4.10;;
13797;SDS011;6970;51.340;3.240;2023-05-10T06:01:01;4.27;;;3.43;;
13797;SDS011;6970;51.340;3.240;2023-05-10T06:03:29;4.40;;;4.00;;
13797;SDS011;6970;51.340;3.240;2023-05-10T06:05:56;4.43;;;4.03;;
13797;SDS011;6970;51.340;3.240;2023-05-10T06:08:25;5.47;;;3.80;;
13797;SDS011;6970;51.340;3.240;2023-05-10T06:10:53;5.17;;;3.73;;
13797;SDS011;6970;51.340;3.240;2023-05-10T06:13:21;5.10;;;4.20;;
13797;SDS011;6970;51.340;3.240;2023-05-10T06:15:51;7.17;;;4.43;;
13797;SDS011;6970;51.340;3.240;2023-05-10T06:18:18;6.57;;;4.77;;
13797;SDS011;6970;51.340;3.240;2023-05-10T06:20:47;7.93;;;4.83;;
13797;SDS011;6970;51.340;3.240;2023-05-10T06:23:17;7.20;;;5.00;;
13797;SDS011;6970;51.340;3.240;2023-05-10T06:25:44;5.97;;;5.03;;
13797;SDS011;6970;51.340;3.240;2023-05-10T06:28:11;5.27;;;4.77;;
13797;SDS011;6970;51.340;3.240;2023-05-10T06:30:40;8.03;;;5.20;;
13797;SDS011;6970;51.340;3.240;2023-05-10T06:33:10;6.60;;;5.23;;
13797;SDS011;6970;51.340;3.240;2023-05-10T06:35:39;5.27;;;4.77;;
13797;SDS011;6970;51.340;3.240;2023-05-10T06:38:06;5.50;;;4.30;;
13797;SDS011;6970;51.340;3.240;2023-05-10T06:40:36;5.27;;;4.67;;
13797;SDS011;6970;51.340;3.240;2023-05-10T06:45:33;6.07;;;3.83;;
13797;SDS011;6970;51.340;3.240;2023-05-10T06:48:02;6.03;;;3.57;;
13797;SDS011;6970;51.340;3.240;2023-05-10T06:50:29;7.73;;;3.60;;
13797;SDS011;6970;51.340;3.240;2023-05-10T06:52:59;5.17;;;2.80;;
13797;SDS011;6970;51.340;3.240;2023-05-10T06:55:26;5.20;;;2.87;;
13797;SDS011;6970;51.340;3.240;2023-05-10T06:57:54;6.23;;;2.90;;
13797;SDS011;6970;51.340;3.240;2023-05-10T07:00:21;3.83;;;2.23;;
13797;SDS011;6970;51.340;3.240;2023-05-10T07:02:51;3.20;;;2.90;;
13797;SDS011;6970;51.340;3.240;2023-05-10T07:05:21;3.70;;;2.63;;
13797;SDS011;6970;51.340;3.240;2023-05-10T07:10:21;3.93;;;3.10;;
13797;SDS011;6970;51.340;3.240;2023-05-10T07:12:48;3.17;;;2.80;;
13797;SDS011;6970;51.340;3.240;2023-05-10T07:15:16;3.77;;;2.80;;
13797;SDS011;6970;51.340;3.240;2023-05-10T07:17:44;3.47;;;3.10;;
13797;SDS011;6970;51.340;3.240;2023-05-10T07:20:13;5.40;;;3.30;;
13797;SDS011;6970;51.340;3.240;2023-05-10T07:22:40;4.50;;;2.93;;
13797;SDS011;6970;51.340;3.240;2023-05-10T07:25:07;3.30;;;2.63;;
13797;SDS011;6970;51.340;3.240;2023-05-10T07:37:36;4.03;;;3.50;;
13797;SDS011;6970;51.340;3.240;2023-05-10T07:42:36;6.93;;;4.83;;
13797;SDS011;6970;51.340;3.240;2023-05-10T07:45:06;6.27;;;5.67;;
13797;SDS011;6970;51.340;3.240;2023-05-10T07:47:34;5.33;;;4.83;;
13797;SDS011;6970;51.340;3.240;2023-05-10T07:50:03;4.40;;;4.00;;
13797;SDS011;6970;51.340;3.240;2023-05-10T07:52:34;6.60;;;4.80;;
13797;SDS011;6970;51.340;3.240;2023-05-10T07:55:04;5.40;;;4.43;;
13797;SDS011;6970;51.340;3.240;2023-05-10T07:57:34;7.00;;;5.03;;
13797;SDS011;6970;51.340;3.240;2023-05-10T08:00:02;9.40;;;5.60;;
13797;SDS011;6970;51.340;3.240;2023-05-10T08:02:32;10.30;;;6.53;;
13797;SDS011;6970;51.340;3.240;2023-05-10T08:05:02;8.73;;;5.80;;
13797;SDS011;6970;51.340;3.240;2023-05-10T08:07:32;6.70;;;5.27;;
13797;SDS011;6970;51.340;3.240;2023-05-10T08:10:03;6.20;;;5.60;;
13797;SDS011;6970;51.340;3.240;2023-05-10T08:12:32;5.57;;;5.00;;
13797;SDS011;6970;51.340;3.240;2023-05-10T08:14:59;6.13;;;4.53;;
13797;SDS011;6970;51.340;3.240;2023-05-10T08:17:26;4.97;;;4.43;;
13797;SDS011;6970;51.340;3.240;2023-05-10T08:22:25;5.30;;;4.77;;
13797;SDS011;6970;51.340;3.240;2023-05-10T08:24:54;4.93;;;4.40;;
13797;SDS011;6970;51.340;3.240;2023-05-10T08:27:24;4.87;;;4.30;;
13797;SDS011;6970;51.340;3.240;2023-05-10T08:32:21;7.23;;;5.37;;
13797;SDS011;6970;51.340;3.240;2023-05-10T08:34:50;8.40;;;4.97;;
13797;SDS011;6970;51.340;3.240;2023-05-10T08:37:20;8.43;;;5.20;;
13797;SDS011;6970;51.340;3.240;2023-05-10T08:39:49;7.43;;;5.17;;
13797;SDS011;6970;51.340;3.240;2023-05-10T08:42:19;7.73;;;4.47;;
13797;SDS011;6970;51.340;3.240;2023-05-10T08:44:53;10.97;;;5.57;;
13797;SDS011;6970;51.340;3.240;2023-05-10T08:47:21;10.70;;;6.07;;
13797;SDS011;6970;51.340;3.240;2023-05-10T08:49:50;14.20;;;8.70;;
13797;SDS011;6970;51.340;3.240;2023-05-10T08:52:19;13.87;;;7.80;;
13797;SDS011;6970;51.340;3.240;2023-05-10T08:54:48;13.97;;;9.43;;
13797;SDS011;6970;51.340;3.240;2023-05-10T08:57:18;9.20;;;8.00;;
13797;SDS011;6970;51.340;3.240;2023-05-10T08:59:46;11.67;;;7.90;;
13797;SDS011;6970;51.340;3.240;2023-05-10T09:02:20;12.77;;;8.13;;
13797;SDS011;6970;51.340;3.240;2023-05-10T09:04:50;8.80;;;7.90;;
13797;SDS011;6970;51.340;3.240;2023-05-10T09:09:49;9.40;;;6.47;;
13797;SDS011;6970;51.340;3.240;2023-05-10T09:12:17;9.37;;;6.37;;
13797;SDS011;6970;51.340;3.240;2023-05-10T09:14:44;7.17;;;5.93;;
13797;SDS011;6970;51.340;3.240;2023-05-10T09:17:12;8.10;;;6.20;;
13797;SDS011;6970;51.340;3.240;2023-05-10T09:19:40;9.77;;;6.03;;
13797;SDS011;6970;51.340;3.240;2023-05-10T09:22:10;10.73;;;6.77;;
13797;SDS011;6970;51.340;3.240;2023-05-10T09:24:39;8.70;;;6.23;;
13797;SDS011;6970;51.340;3.240;2023-05-10T09:29:44;10.90;;;7.13;;
13797;SDS011;6970;51.340;3.240;2023-05-10T09:32:12;11.00;;;6.53;;
13797;SDS011;6970;51.340;3.240;2023-05-10T09:37:13;21.83;;;8.70;;
13797;SDS011;6970;51.340;3.240;2023-05-10T09:42:11;15.67;;;7.53;;
13797;SDS011;6970;51.340;3.240;2023-05-10T09:47:09;9.13;;;6.20;;
13797;SDS011;6970;51.340;3.240;2023-05-10T09:49:39;10.93;;;6.00;;
13797;SDS011;6970;51.340;3.240;2023-05-10T09:54:42;6.43;;;5.83;;
13797;SDS011;6970;51.340;3.240;2023-05-10T09:57:24;10.73;;;6.20;;
13797;SDS011;6970;51.340;3.240;2023-05-10T09:59:53;9.63;;;6.20;;
13797;SDS011;6970;51.340;3.240;2023-05-10T10:02:20;9.07;;;5.70;;
13797;SDS011;6970;51.340;3.240;2023-05-10T10:04:54;8.80;;;5.93;;
13797;SDS011;6970;51.340;3.240;2023-05-10T10:07:22;7.47;;;5.40;;
13797;SDS011;6970;51.340;3.240;2023-05-10T10:14:56;8.77;;;6.70;;
13797;SDS011;6970;51.340;3.240;2023-05-10T10:17:26;5.90;;;5.27;;
13797;SDS011;6970;51.340;3.240;2023-05-10T10:19:54;9.67;;;5.40;;
13797;SDS011;6970;51.340;3.240;2023-05-10T10:22:24;10.00;;;6.00;;
13797;SDS011;6970;51.340;3.240;2023-05-10T10:24:54;15.07;;;6.27;;
13797;SDS011;6970;51.340;3.240;2023-05-10T10:27:28;6.20;;;4.83;;
13797;SDS011;6970;51.340;3.240;2023-05-10T10:35:43;8.00;;;5.53;;
13797;SDS011;6970;51.340;3.240;2023-05-10T10:38:21;6.73;;;4.80;;
13797;SDS011;6970;51.340;3.240;2023-05-10T10:41:22;6.87;;;5.13;;
13797;SDS011;6970;51.340;3.240;2023-05-10T10:50:06;10.00;;;4.87;;
13797;SDS011;6970;51.340;3.240;2023-05-10T10:52:40;6.80;;;5.00;;
13797;SDS011;6970;51.340;3.240;2023-05-10T10:55:18;5.20;;;4.70;;
13797;SDS011;6970;51.340;3.240;2023-05-10T10:57:50;6.97;;;5.13;;
13797;SDS011;6970;51.340;3.240;2023-05-10T11:00:19;5.97;;;4.60;;
13797;SDS011;6970;51.340;3.240;2023-05-10T11:02:56;10.73;;;5.20;;
13797;SDS011;6970;51.340;3.240;2023-05-10T11:05:34;6.43;;;5.10;;
13797;SDS011;6970;51.340;3.240;2023-05-10T11:08:13;8.80;;;5.53;;
13797;SDS011;6970;51.340;3.240;2023-05-10T11:16:23;10.07;;;6.30;;
13797;SDS011;6970;51.340;3.240;2023-05-10T11:21:31;8.40;;;6.80;;
13797;SDS011;6970;51.340;3.240;2023-05-10T11:24:08;9.53;;;6.50;;
13797;SDS011;6970;51.340;3.240;2023-05-10T11:26:42;10.43;;;7.10;;
13797;SDS011;6970;51.340;3.240;2023-05-10T11:29:15;10.50;;;7.07;;
13797;SDS011;6970;51.340;3.240;2023-05-10T11:31:46;10.60;;;7.07;;
13797;SDS011;6970;51.340;3.240;2023-05-10T11:34:24;9.30;;;7.73;;
13797;SDS011;6970;51.340;3.240;2023-05-10T11:36:57;9.33;;;6.93;;
13797;SDS011;6970;51.340;3.240;2023-05-10T11:39:34;12.63;;;7.40;;
13797;SDS011;6970;51.340;3.240;2023-05-10T11:42:01;11.40;;;7.33;;
13797;SDS011;6970;51.340;3.240;2023-05-10T11:44:32;12.83;;;7.07;;
13797;SDS011;6970;51.340;3.240;2023-05-10T11:47:02;7.83;;;5.80;;
13797;SDS011;6970;51.340;3.240;2023-05-10T11:49:32;12.73;;;5.63;;
13797;SDS011;6970;51.340;3.240;2023-05-10T11:52:07;11.97;;;5.03;;
13797;SDS011;6970;51.340;3.240;2023-05-10T11:54:37;12.53;;;5.53;;
13797;SDS011;6970;51.340;3.240;2023-05-10T11:57:04;15.07;;;5.93;;
13797;SDS011;6970;51.340;3.240;2023-05-10T11:59:32;10.73;;;5.50;;
13797;SDS011;6970;51.340;3.240;2023-05-10T12:02:00;10.73;;;5.13;;
13797;SDS011;6970;51.340;3.240;2023-05-10T12:06:59;11.60;;;5.37;;
13797;SDS011;6970;51.340;3.240;2023-05-10T12:09:30;12.27;;;4.80;;
13797;SDS011;6970;51.340;3.240;2023-05-10T12:12:19;8.27;;;4.13;;
13797;SDS011;6970;51.340;3.240;2023-05-10T12:14:48;12.73;;;5.27;;
13797;SDS011;6970;51.340;3.240;2023-05-10T12:17:17;13.93;;;4.77;;
13797;SDS011;6970;51.340;3.240;2023-05-10T12:19:45;12.27;;;4.20;;
13797;SDS011;6970;51.340;3.240;2023-05-10T12:22:13;7.57;;;3.50;;
13797;SDS011;6970;51.340;3.240;2023-05-10T12:24:40;9.60;;;4.17;;
13797;SDS011;6970;51.340;3.240;2023-05-10T12:27:07;10.13;;;4.57;;
13797;SDS011;6970;51.340;3.240;2023-05-10T12:29:40;12.37;;;4.30;;
13797;SDS011;6970;51.340;3.240;2023-05-10T12:32:10;7.17;;;3.70;;
13797;SDS011;6970;51.340;3.240;2023-05-10T12:34:39;8.60;;;4.20;;
13797;SDS011;6970;51.340;3.240;2023-05-10T12:37:07;7.97;;;3.93;;
13797;SDS011;6970;51.340;3.240;2023-05-10T12:39:41;5.73;;;3.17;;
13797;SDS011;6970;51.340;3.240;2023-05-10T12:47:13;12.70;;;4.67;;
13797;SDS011;6970;51.340;3.240;2023-05-10T12:49:41;10.77;;;5.40;;
13797;SDS011;6970;51.340;3.240;2023-05-10T12:52:08;8.67;;;4.30;;
13797;SDS011;6970;51.340;3.240;2023-05-10T12:54:37;5.90;;;3.47;;
13797;SDS011;6970;51.340;3.240;2023-05-10T12:59:35;8.07;;;3.97;;
13797;SDS011;6970;51.340;3.240;2023-05-10T13:02:06;10.53;;;4.40;;
13797;SDS011;6970;51.340;3.240;2023-05-10T13:07:09;9.33;;;3.77;;
13797;SDS011;6970;51.340;3.240;2023-05-10T13:09:37;6.70;;;3.53;;
13797;SDS011;6970;51.340;3.240;2023-05-10T13:14:36;5.87;;;3.47;;
13797;SDS011;6970;51.340;3.240;2023-05-10T13:17:09;6.20;;;3.20;;
13797;SDS011;6970;51.340;3.240;2023-05-10T13:19:38;8.23;;;3.50;;
13797;SDS011;6970;51.340;3.240;2023-05-10T13:22:06;7.07;;;3.53;;
13797;SDS011;6970;51.340;3.240;2023-05-10T13:24:34;7.43;;;3.10;;
13797;SDS011;6970;51.340;3.240;2023-05-10T13:27:02;8.87;;;3.63;;
13797;SDS011;6970;51.340;3.240;2023-05-10T13:29:30;7.80;;;3.23;;
13797;SDS011;6970;51.340;3.240;2023-05-10T13:31:58;11.20;;;3.60;;
13797;SDS011;6970;51.340;3.240;2023-05-10T13:34:27;8.83;;;4.13;;
13797;SDS011;6970;51.340;3.240;2023-05-10T13:36:56;8.27;;;3.50;;
13797;SDS011;6970;51.340;3.240;2023-05-10T13:39:24;7.03;;;3.43;;
13797;SDS011;6970;51.340;3.240;2023-05-10T13:42:00;8.03;;;3.90;;
13797;SDS011;6970;51.340;3.240;2023-05-10T13:44:28;10.40;;;3.87;;
13797;SDS011;6970;51.340;3.240;2023-05-10T13:49:26;9.93;;;4.70;;
13797;SDS011;6970;51.340;3.240;2023-05-10T13:51:53;6.80;;;3.53;;
13797;SDS011;6970;51.340;3.240;2023-05-10T13:54:26;8.23;;;3.60;;
13797;SDS011;6970;51.340;3.240;2023-05-10T13:56:56;9.77;;;3.53;;
13797;SDS011;6970;51.340;3.240;2023-05-10T13:59:25;6.30;;;3.27;;
13797;SDS011;6970;51.340;3.240;2023-05-10T14:01:53;7.97;;;3.67;;
13797;SDS011;6970;51.340;3.240;2023-05-10T14:04:22;7.27;;;3.30;;
13797;SDS011;6970;51.340;3.240;2023-05-10T14:06:50;9.10;;;3.60;;
13797;SDS011;6970;51.340;3.240;2023-05-10T14:09:21;7.80;;;2.97;;
13797;SDS011;6970;51.340;3.240;2023-05-10T14:11:50;7.53;;;3.37;;
13797;SDS011;6970;51.340;3.240;2023-05-10T14:14:17;9.23;;;4.17;;
13797;SDS011;6970;51.340;3.240;2023-05-10T14:16:44;9.37;;;3.73;;
13797;SDS011;6970;51.340;3.240;2023-05-10T14:19:13;7.73;;;3.33;;
13797;SDS011;6970;51.340;3.240;2023-05-10T14:24:10;9.33;;;3.63;;
13797;SDS011;6970;51.340;3.240;2023-05-10T14:29:10;9.57;;;3.80;;
13797;SDS011;6970;51.340;3.240;2023-05-10T14:31:38;9.23;;;3.60;;
13797;SDS011;6970;51.340;3.240;2023-05-10T14:34:07;7.70;;;3.53;;
13797;SDS011;6970;51.340;3.240;2023-05-10T14:36:35;8.70;;;3.87;;
13797;SDS011;6970;51.340;3.240;2023-05-10T14:39:02;6.87;;;3.50;;
13797;SDS011;6970;51.340;3.240;2023-05-10T14:41:29;7.00;;;3.87;;
13797;SDS011;6970;51.340;3.240;2023-05-10T14:43:57;9.40;;;4.30;;
13797;SDS011;6970;51.340;3.240;2023-05-10T14:46:24;9.30;;;3.63;;
13797;SDS011;6970;51.340;3.240;2023-05-10T14:48:52;7.40;;;3.57;;
13797;SDS011;6970;51.340;3.240;2023-05-10T14:53:52;8.17;;;4.37;;
13797;SDS011;6970;51.340;3.240;2023-05-10T14:56:20;8.37;;;3.77;;
13797;SDS011;6970;51.340;3.240;2023-05-10T14:58:51;12.07;;;4.30;;
13797;SDS011;6970;51.340;3.240;2023-05-10T15:01:20;7.20;;;3.87;;
13797;SDS011;6970;51.340;3.240;2023-05-10T15:03:48;7.57;;;3.37;;
13797;SDS011;6970;51.340;3.240;2023-05-10T15:06:17;8.17;;;3.63;;
13797;SDS011;6970;51.340;3.240;2023-05-10T15:11:21;9.13;;;3.63;;
13797;SDS011;6970;51.340;3.240;2023-05-10T15:16:20;7.10;;;3.60;;
13797;SDS011;6970;51.340;3.240;2023-05-10T15:18:47;8.23;;;3.87;;
13797;SDS011;6970;51.340;3.240;2023-05-10T15:21:15;6.43;;;3.37;;
13797;SDS011;6970;51.340;3.240;2023-05-10T15:23:44;8.87;;;3.60;;
13797;SDS011;6970;51.340;3.240;2023-05-10T15:26:12;8.63;;;4.00;;
13797;SDS011;6970;51.340;3.240;2023-05-10T15:28:40;10.83;;;4.47;;
13797;SDS011;6970;51.340;3.240;2023-05-10T15:31:07;11.00;;;3.87;;
13797;SDS011;6970;51.340;3.240;2023-05-10T15:33:36;9.37;;;3.57;;
13797;SDS011;6970;51.340;3.240;2023-05-10T15:38:41;11.00;;;4.23;;
13797;SDS011;6970;51.340;3.240;2023-05-10T15:43:42;10.17;;;4.20;;
13797;SDS011;6970;51.340;3.240;2023-05-10T15:46:09;11.13;;;4.00;;
13797;SDS011;6970;51.340;3.240;2023-05-10T15:48:37;10.67;;;4.27;;
13797;SDS011;6970;51.340;3.240;2023-05-10T15:51:07;10.90;;;4.00;;
13797;SDS011;6970;51.340;3.240;2023-05-10T15:53:34;10.47;;;4.03;;
13797;SDS011;6970;51.340;3.240;2023-05-10T15:56:04;10.00;;;3.30;;
13797;SDS011;6970;51.340;3.240;2023-05-10T15:58:34;14.83;;;3.67;;
13797;SDS011;6970;51.340;3.240;2023-05-10T16:03:32;9.10;;;3.97;;
13797;SDS011;6970;51.340;3.240;2023-05-10T16:06:05;11.40;;;3.57;;
13797;SDS011;6970;51.340;3.240;2023-05-10T16:08:34;9.83;;;3.70;;
13797;SDS011;6970;51.340;3.240;2023-05-10T16:13:34;7.43;;;3.77;;
13797;SDS011;6970;51.340;3.240;2023-05-10T16:18:34;7.67;;;4.00;;
13797;SDS011;6970;51.340;3.240;2023-05-10T16:21:02;10.43;;;4.20;;
13797;SDS011;6970;51.340;3.240;2023-05-10T16:23:32;7.17;;;2.97;;
13797;SDS011;6970;51.340;3.240;2023-05-10T16:26:00;7.10;;;3.30;;
13797;SDS011;6970;51.340;3.240;2023-05-10T16:28:29;10.60;;;4.20;;
13797;SDS011;6970;51.340;3.240;2023-05-10T16:30:59;7.63;;;3.43;;
13797;SDS011;6970;51.340;3.240;2023-05-10T16:33:26;7.03;;;3.67;;
13797;SDS011;6970;51.340;3.240;2023-05-10T16:35:56;7.23;;;3.50;;
13797;SDS011;6970;51.340;3.240;2023-05-10T16:38:23;6.80;;;2.93;;
13797;SDS011;6970;51.340;3.240;2023-05-10T16:40:50;6.67;;;3.13;;
13797;SDS011;6970;51.340;3.240;2023-05-10T16:43:20;9.63;;;3.47;;
13797;SDS011;6970;51.340;3.240;2023-05-10T16:45:50;6.67;;;3.13;;
13797;SDS011;6970;51.340;3.240;2023-05-10T16:48:17;9.07;;;3.67;;
13797;SDS011;6970;51.340;3.240;2023-05-10T16:50:46;6.33;;;3.97;;
13797;SDS011;6970;51.340;3.240;2023-05-10T16:55:44;7.00;;;3.50;;
13797;SDS011;6970;51.340;3.240;2023-05-10T17:00:45;8.80;;;3.80;;
13797;SDS011;6970;51.340;3.240;2023-05-10T17:03:15;7.63;;;4.23;;
13797;SDS011;6970;51.340;3.240;2023-05-10T17:05:48;12.03;;;4.40;;
13797;SDS011;6970;51.340;3.240;2023-05-10T17:08:15;11.20;;;4.47;;
13797;SDS011;6970;51.340;3.240;2023-05-10T17:10:43;10.53;;;4.80;;
13797;SDS011;6970;51.340;3.240;2023-05-10T17:13:10;11.30;;;4.40;;
13797;SDS011;6970;51.340;3.240;2023-05-10T17:15:38;8.47;;;4.47;;
13797;SDS011;6970;51.340;3.240;2023-05-10T17:18:08;6.60;;;3.67;;
13797;SDS011;6970;51.340;3.240;2023-05-10T17:20:35;13.47;;;4.10;;
13797;SDS011;6970;51.340;3.240;2023-05-10T17:23:03;12.90;;;4.87;;
13797;SDS011;6970;51.340;3.240;2023-05-10T17:25:30;8.10;;;3.93;;
13797;SDS011;6970;51.340;3.240;2023-05-10T17:27:57;9.60;;;3.70;;
13797;SDS011;6970;51.340;3.240;2023-05-10T17:30:24;6.87;;;3.33;;
13797;SDS011;6970;51.340;3.240;2023-05-10T17:32:53;10.07;;;3.73;;
13797;SDS011;6970;51.340;3.240;2023-05-10T17:35:20;7.67;;;3.17;;
13797;SDS011;6970;51.340;3.240;2023-05-10T17:37:47;5.27;;;2.83;;
13797;SDS011;6970;51.340;3.240;2023-05-10T17:40:15;8.17;;;3.50;;
13797;SDS011;6970;51.340;3.240;2023-05-10T17:42:43;12.20;;;3.73;;
13797;SDS011;6970;51.340;3.240;2023-05-10T17:45:10;8.40;;;3.50;;
13797;SDS011;6970;51.340;3.240;2023-05-10T17:47:38;10.37;;;3.63;;
13797;SDS011;6970;51.340;3.240;2023-05-10T17:50:06;8.17;;;3.63;;
13797;SDS011;6970;51.340;3.240;2023-05-10T17:55:05;7.60;;;3.20;;
13797;SDS011;6970;51.340;3.240;2023-05-10T17:57:32;9.17;;;3.10;;
13797;SDS011;6970;51.340;3.240;2023-05-10T18:00:02;11.37;;;3.67;;
13797;SDS011;6970;51.340;3.240;2023-05-10T18:02:33;8.00;;;3.30;;
13797;SDS011;6970;51.340;3.240;2023-05-10T18:05:05;12.87;;;3.97;;
13797;SDS011;6970;51.340;3.240;2023-05-10T18:07:33;10.17;;;4.27;;